Boyes Hot Springs, CA (95416)

7:44 PM PST on December 20, 2014 (GMT -0800)
Madison Station | Change Station
CLOSE
Current Station
Personal Weather Station
Location: Sonoma, CA
Elevation: 141 ft
Nearby Weather Stations
Active Advisory: Coastal Flood Advisory

Elev 141 ft 38.31 °N, 122.49 °W | Updated 9 minutes ago

Overcast
Overcast
55.8 °F
Feels Like 55.8 °F
N
0.0
Wind Variable Wind from ESE

Today
High -- | Low -- °F
--% Chance of Precip.
Yesterday
High -- | Low -- °F
Precip. -- in
7:22 AM 4:52 PM
Waning Crescent, 1% visible
Pressure 30.19 in
Visibility 10.0 miles
Clouds Overcast 2800 ft
Dew Point 56 °F
Humidity 99%
Rainfall 0.07 in
Snow Depth Not available.
UV 0 out of 12
Pollen 4.00 out of 12
Air Quality Not available.
Flu Activity Not available.
METAR KAPC 210254Z 12003KT 10SM OVC028 14/12 A3021 RMK AO2 SLP222 T01390122 53004

More Conditions Fewer Conditions

Pressure 30.19 in
Visibility 10.0 miles
Clouds Overcast 2800 ft
Dew Point 56 °F
Humidity 99%
Rainfall 0.07 in
Snow Depth Not available.
UV 0 out of 12
Pollen 4.00 out of 12
Air Quality Not available.
Flu Activity Not available.
METAR KAPC 210254Z 12003KT 10SM OVC028 14/12 A3021 RMK AO2 SLP222 T01390122 53004

More Conditions Fewer Conditions

10-Day Weather Forecast

Almanac

Astronomy

Dec. 20, 2014 Rise Set
Actual Time
Civil Twilight
Nautical Twilight
Astronomical Twilight
Moon
Length of Visible Light
Length of Day
Tomorrow will be .
, % of the Moon is Illuminated

Today's Extremes

State Highs State Lows

Community

WunderPhotos

Upload Photos

1,779,354 photos uploaded!

WunderBlogs® & News

Nearby

Air Quality

  Air Quality AQ Index Pollutant
Not available.

Snow Depth

Station Depth Elevation

Earthquake Activity

City Distance Mag. Time & Date
Minimum magnitude displayed is 2.5.

Coastal Water Temperatures

Place Temperature

Nearby Weather Stations